Station: Cobar Airport  

  Atmospheric Gas Attenuation - ITU Rec 676-11   ----------------- dB/100km -----------------
Date Time Temp RH % AH g/m3 Dew Point Wind Direction Speed kph Gust kph Barometer mB Rainfall Since 9am 24GHz 47GHz 76GHz 122GHz 134GHz 241GHz
08/05 12:30 15 58 7.44 6.8 26 33 1026.1 0 17.1 24.2 35.3 92.1 83.0 284.7
08/05 12:20 15.4 60 7.88 7.7 26 28 1026.3 0 18.0 24.8 36.8 96.2 88.2 302.8
08/05 12:10 15.2 60 7.79 7.5 19 24 1026.5 0 17.8 24.7 36.5 95.5 87.3 299.6
08/05 12:00 14.9 61 7.77 7.5 22 28 1026.7 0 17.8 24.8 36.6 95.7 87.4 299.9
08/05 11:50 14.6 61 7.63 7.2 24 28 1026.8 0 17.5 24.6 36.2 94.6 85.9 294.8
08/05 11:40 14.1 62 7.52 6.9 26 32 1027 0 17.3 24.6 36.0 94.1 85.1 291.7
08/05 11:30 14.1 62 7.52 6.9 22 30 1027 0 17.3 24.6 36.0 94.1 85.1 291.7
08/05 11:20 13.9 62 7.43 6.7 22 26 1027.2 0 17.1 24.5 35.7 93.4 84.2 288.5
08/05 11:10 13.7 62 7.34 6.6 26 30 1027.3 0 16.9 24.4 35.5 92.7 83.2 285.2
08/05 11:00 13.5 63 7.37 6.6 24 30 1027.5 0 17.0 24.5 35.7 93.3 83.9 287.3
08/05 10:50 13.6 64 7.53 6.9 24 30 1027.4 0 17.3 24.8 36.3 94.8 85.8 294.1
08/05 10:40 12.9 63 7.1 6 30 32 1027.4 0 16.4 24.3 34.9 91.2 81.0 277.3
08/05 10:30 12.7 66 7.35 6.5 28 35 1027.5 0 17.0 24.7 36.0 94.0 84.5 289.3
08/05 10:20 12.7 66 7.35 6.5 26 28 1027.4 0 17.0 24.7 36.0 94.0 84.4 289.3
08/05 10:10 12.6 66 7.3 6.4 28 32 1027.4 0 16.9 24.7 35.8 93.6 83.9 287.4
08/05 10:00 12.1 65 6.97 5.7 28 39 1027.5 0 16.2 24.3 34.8 90.8 80.2 274.3
08/05 09:50 12.2 66 7.12 6 30 35 1027.4 0 16.5 24.5 35.3 92.2 82.0 280.7
08/05 09:40 11.7 66 6.9 5.6 19 26 1027.4 0 16.0 24.3 34.7 90.5 79.7 272.5
08/05 09:30 11.3 67 6.84 5.4 20 28 1027.5 0 15.9 24.3 34.6 90.3 79.3 271.2
08/05 09:20 11.1 69 6.95 5.6 17 20 1027.3 0 16.2 24.5 35.1 91.7 80.9 276.8
08/05 09:10 10.5 68 6.6 4.9 19 22 1027.3 0 15.5 24.1 34.0 88.7 77.0 262.9
08/05 09:00 10.1 68 6.43 4.5 17 26 1027.2 0 15.1 24.0 33.5 87.3 75.2 256.5
08/05 08:50 9.7 69 6.36 4.3 13 15 1027.2 0 15.0 24.0 33.4 87.0 74.7 254.6
08/05 08:40 8.8 71 6.18 3.8 13 15 1027.2 0 14.6 23.9 33.0 86.1 73.2 249.3
08/05 08:30 7.9 75 6.16 3.8 9 13 1027.2 0 14.6 24.1 33.3 86.9 73.8 251.2
08/05 08:20 7 77 5.97 3.3 9 9 1027.2 0 14.2 24.1 33.0 85.9 72.1 245.3
08/05 08:10 6.1 78 5.7 2.6 6 7 1027.2 0 13.7 23.9 32.2 83.9 69.4 235.5
08/05 08:00 5.6 81 5.73 2.6 4 7 1027.2 0 13.8 24.1 32.6 84.8 70.2 238.4
08/05 07:50 5.4 82 5.73 2.6 0 0 1027.2 0 13.8 24.1 32.6 85.0 70.4 239.0
08/05 07:40 4.6 82 5.43 1.8 0 0 1027.1 0 13.2 23.8 31.7 82.6 67.1 227.3
08/05 07:30 4.2 82 5.29 1.4 2 7 1027.1 0 12.9 23.7 31.3 81.5 65.6 221.9
08/05 07:20 3.7 85 5.3 1.4 0 0 1027 0 12.9 23.8 31.6 82.2 66.1 223.7
08/05 07:10 3 87 5.18 1.1 0 0 1026.8 0 12.7 23.8 31.4 81.6 65.1 220.0
08/05 07:00 2.6 87 5.04 0.7 2 6 1026.8 0 12.4 23.7 30.9 80.4 63.5 214.5
08/05 06:50 2.7 88 5.13 0.9 6 6 1026.8 0 12.6 23.8 31.3 81.3 64.7 218.5
08/05 06:40 2.9 87 5.14 1 6 7 1026.7 0 12.6 23.8 31.2 81.2 64.6 218.4
08/05 06:30 3.1 85 5.09 0.8 2 7 1026.7 0 12.5 23.7 30.9 80.5 63.8 215.5
08/05 06:20 3.5 85 5.23 1.2 0 0 1026.7 0 12.8 23.8 31.4 81.6 65.3 220.9
08/05 06:10 3 87 5.18 1.1 0 0 1026.7 0 12.7 23.8 31.3 81.6 65.1 220.0
08/05 06:00 3.3 86 5.22 1.2 0 0 1026.6 0 12.8 23.8 31.4 81.7 65.4 221.0
08/05 05:50 3.5 84 5.17 1.1 0 2 1026.5 0 12.7 23.7 31.1 80.9 64.5 218.1
08/05 05:40 3.4 84 5.14 1 6 6 1026.5 0 12.6 23.6 31.0 80.7 64.2 216.9
08/05 05:30 3.3 84 5.1 0.9 6 7 1026.5 0 12.5 23.6 30.9 80.4 63.7 215.3
08/05 05:20 3.4 86 5.26 1.3 6 6 1026.5 0 12.9 23.8 31.5 82.0 65.8 222.6
08/05 05:10 3.2 87 5.25 1.3 4 7 1026.3 0 12.8 23.9 31.5 82.1 65.8 222.6
08/05 05:00 3 89 5.3 1.4 0 0 1026.4 0 13.0 24.0 31.8 82.8 66.7 225.6
08/05 04:50 3.2 86 5.19 1.1 0 0 1026.4 0 12.7 23.8 31.3 81.4 65.0 219.8
08/05 04:40 3.6 86 5.33 1.5 0 0 1026.3 0 13.0 23.9 31.7 82.5 66.6 225.3
08/05 04:30 3.6 86 5.33 1.5 0 0 1026.3 0 13.0 23.9 31.7 82.5 66.6 225.3
08/05 04:20 3.3 86 5.22 1.2 0 0 1026.4 0 12.8 23.8 31.4 81.6 65.3 221.0
08/05 04:10 3.8 83 5.21 1.2 0 0 1026.5 0 12.7 23.7 31.1 81.0 64.8 219.1
08/05 04:00 3.6 86 5.33 1.5 0 4 1026.4 0 13.0 23.9 31.7 82.5 66.6 225.3
08/05 03:50 3.2 87 5.25 1.3 2 4 1026.3 0 12.8 23.9 31.5 82.1 65.8 222.6
08/05 03:40 3.4 88 5.38 1.6 0 0 1026.4 0 13.1 24.0 32.0 83.3 67.4 228.3
08/05 03:30 3.9 81 5.12 0.9 6 6 1026.4 0 12.5 23.5 30.7 79.9 63.5 214.6
08/05 03:20 4.1 81 5.19 1.1 2 4 1026.6 0 12.7 23.5 31.0 80.5 64.3 217.4
08/05 03:10 4 82 5.22 1.2 4 6 1026.6 0 12.7 23.6 31.1 80.9 64.8 219.1
08/05 03:00 3.9 83 5.25 1.3 0 0 1026.7 0 12.8 23.7 31.3 81.4 65.3 220.8
08/05 02:50 4.1 84 5.38 1.6 0 0 1026.7 0 13.1 23.9 31.7 82.6 66.8 226.3
08/05 02:40 3.9 84 5.31 1.4 0 0 1026.7 0 12.9 23.8 31.5 82.0 66.1 223.6
08/05 02:30 3.8 85 5.34 1.5 0 0 1026.7 0 13.0 23.9 31.7 82.5 66.5 225.3
08/05 02:20 3.6 87 5.39 1.6 0 0 1026.8 0 13.1 24.0 32.0 83.2 67.4 228.2
08/05 02:10 3.5 88 5.42 1.7 0 0 1026.8 0 13.2 24.1 32.1 83.7 67.9 229.9
08/05 02:00 3.7 87 5.43 1.7 0 0 1026.9 0 13.2 24.1 32.1 83.6 67.9 229.8
08/05 01:50 4.1 84 5.38 1.6 0 0 1026.9 0 13.1 23.9 31.7 82.6 66.8 226.3
08/05 01:40 4.2 83 5.35 1.6 0 0 1026.9 0 13.0 23.8 31.6 82.2 66.3 224.6
08/05 01:30 4.4 81 5.29 1.4 0 0 1027 0 12.9 23.6 31.3 81.3 65.4 221.3
08/05 01:20 4.3 86 5.58 2.2 0 0 1026.9 0 13.5 24.1 32.5 84.6 69.3 235.2
08/05 01:10 4.1 83 5.32 1.5 0 0 1026.9 0 13.0 23.8 31.5 81.9 66.0 223.5
08/05 01:00 4.5 81 5.33 1.5 0 0 1026.9 0 13.0 23.7 31.4 81.6 65.8 222.8
08/05 00:50 4.6 78 5.17 1.1 0 0 1027 0 12.6 23.4 30.7 79.8 63.6 215.2
08/05 00:40 4.4 79 5.16 1.1 0 0 1027.1 0 12.6 23.4 30.7 79.9 63.7 215.3
08/05 00:20 5.1 73 5 0.7 7 7 1027.1 0 12.2 23.0 29.8 77.5 61.0 206.0
08/05 00:10 5.3 71 4.92 0.5 6 7 1027.2 0 12.1 22.8 29.5 76.5 59.8 201.9
08/05 00:00 5.5 71 4.99 0.7 4 6 1027.2 0 12.2 22.9 29.7 77.0 60.6 204.6
07/05 23:50 5.4 73 5.1 1 4 6 1027.2 0 12.4 23.1 30.1 78.3 62.1 209.8
07/05 23:40 5.4 72 5.03 0.8 4 6 1027.2 0 12.3 23.0 29.9 77.6 61.2 206.6
07/05 23:30 4.8 76 5.1 0.9 9 11 1027.2 0 12.5 23.2 30.4 78.9 62.6 211.4
07/05 23:20 4.9 75 5.07 0.9 11 11 1027.2 0 12.4 23.2 30.2 78.5 62.1 209.8
07/05 23:10 5.1 74 5.07 0.9 9 9 1027.2 0 12.4 23.1 30.1 78.3 61.9 209.2
07/05 23:00 5.3 72 4.99 0.7 9 11 1027.3 0 12.2 22.9 29.7 77.3 60.7 205.1
07/05 22:50 5.4 73 5.1 1 9 11 1027.4 0 12.4 23.1 30.1 78.3 62.1 209.9
07/05 22:40 5.4 73 5.1 1 11 13 1027.4 0 12.4 23.1 30.1 78.3 62.1 209.9
07/05 22:30 5.5 72 5.06 0.9 9 13 1027.5 0 12.4 23.0 29.9 77.8 61.5 207.8
07/05 22:20 5.8 72 5.16 1.2 7 7 1027.5 0 12.6 23.1 30.2 78.6 62.6 211.6
07/05 22:10 5.6 73 5.16 1.2 9 9 1027.5 0 12.6 23.1 30.3 78.8 62.7 212.1
07/05 22:00 5.6 73 5.16 1.2 11 11 1027.5 0 12.6 23.1 30.3 78.8 62.7 212.1
07/05 21:50 6.1 71 5.19 1.2 9 9 1027.3 0 12.6 23.1 30.2 78.6 62.7 212.1
07/05 21:40 6.4 66 4.92 0.5 7 7 1027.3 0 12.0 22.6 29.1 75.5 59.0 199.1
07/05 21:30 6.7 64 4.87 0.4 9 9 1027.3 0 11.9 22.4 28.8 74.7 58.1 196.2
07/05 21:20 6.9 62 4.78 0.1 9 9 1027.2 0 11.7 22.2 28.3 73.6 56.9 191.7
07/05 21:10 7 62 4.81 0.2 7 7 1027.3 0 11.8 22.2 28.4 73.8 57.2 192.8
07/05 21:00 7.1 63 4.92 0.5 9 9 1027.1 0 12.0 22.4 28.8 74.8 58.5 197.4
07/05 20:50 7.5 59 4.72 0 9 9 1027.1 0 11.6 22.0 27.9 72.4 55.7 187.6
07/05 20:40 8 56 4.63 -0.2 9 9 1027.1 0 11.4 21.7 27.4 71.0 54.2 182.6
07/05 20:30 7.9 57 4.68 -0.1 9 9 1027.1 0 11.5 21.8 27.6 71.6 54.9 184.9
07/05 20:20 8 56 4.63 -0.2 9 9 1027.1 0 11.4 21.7 27.4 71.0 54.2 182.6
07/05 20:10 8.2 55 4.61 -0.3 11 11 1027.1 0 11.3 21.6 27.3 70.7 53.8 181.2
07/05 20:00 8.8 52 4.53 -0.5 11 13 1027 0 11.1 21.4 26.8 69.3 52.5 176.5
07/05 19:50 9.4 49 4.43 -0.8 11 11 1027 0 10.9 21.1 26.2 67.9 50.9 170.9

Last Refresh: 08-May-2026 12:09:35

Bureau of Meteorology